createdAt,value
2018-12-31T00:00:19.344Z,92.30
2018-12-31T00:02:48.405Z,92.40
2018-12-31T00:05:17.460Z,92.40
2018-12-31T00:07:46.528Z,92.40
2018-12-31T00:10:15.582Z,92.40
2018-12-31T00:12:44.614Z,92.40
2018-12-31T00:15:13.688Z,92.70
2018-12-31T00:17:42.735Z,92.40
2018-12-31T00:20:11.787Z,92.40
2018-12-31T00:22:40.897Z,92.30
2018-12-31T00:25:09.942Z,92.30
2018-12-31T00:27:39.267Z,92.20
2018-12-31T00:30:08.334Z,92.20
2018-12-31T00:32:37.374Z,92.20
2018-12-31T00:35:06.433Z,92.40
2018-12-31T00:37:35.483Z,92.50
2018-12-31T00:40:05.358Z,92.60
2018-12-31T00:42:34.390Z,92.50
2018-12-31T00:45:03.591Z,92.50
2018-12-31T00:47:32.655Z,92.40
2018-12-31T00:50:01.690Z,92.40
2018-12-31T00:52:30.727Z,92.30
2018-12-31T00:54:59.772Z,92.30
2018-12-31T00:57:28.917Z,92.30
2018-12-31T00:59:57.965Z,92.30
2018-12-31T01:02:27.030Z,92.20
2018-12-31T01:04:56.289Z,92.50
2018-12-31T01:07:25.335Z,92.20
2018-12-31T01:09:54.411Z,92.10
2018-12-31T01:12:23.462Z,92.10
2018-12-31T01:14:52.511Z,92.10
2018-12-31T01:17:21.567Z,92.10
2018-12-31T01:19:50.609Z,92.10
2018-12-31T01:22:19.661Z,92.20
2018-12-31T01:24:48.843Z,92.10
2018-12-31T01:27:17.893Z,92.20
2018-12-31T01:29:46.967Z,92.20
2018-12-31T01:32:16.035Z,92.20
2018-12-31T01:34:45.153Z,92.20
2018-12-31T01:37:14.231Z,92.20
2018-12-31T01:39:43.269Z,92.30
2018-12-31T01:42:12.337Z,92.30
2018-12-31T01:44:41.367Z,92.20
2018-12-31T01:47:10.433Z,92.30
2018-12-31T01:49:39.493Z,92.30
2018-12-31T01:52:08.546Z,92.30
2018-12-31T01:54:37.602Z,92.30
2018-12-31T01:57:06.675Z,92.20
2018-12-31T01:59:35.711Z,92.20
2018-12-31T02:02:04.786Z,92.20
2018-12-31T02:04:33.823Z,92.20
2018-12-31T02:07:02.867Z,92.20
2018-12-31T02:09:31.892Z,92.10
2018-12-31T02:12:00.928Z,92.10
2018-12-31T02:14:29.990Z,92.10
2018-12-31T02:16:59.111Z,92.50
2018-12-31T02:19:28.139Z,92.00
2018-12-31T02:21:57.205Z,92.10
2018-12-31T02:24:26.221Z,92.00
2018-12-31T02:26:55.259Z,92.00
2018-12-31T02:29:24.311Z,92.40
2018-12-31T02:31:53.360Z,92.00
2018-12-31T02:34:22.421Z,91.90
2018-12-31T02:36:51.458Z,91.90
2018-12-31T02:39:20.521Z,91.90
2018-12-31T02:41:49.569Z,91.80
2018-12-31T02:44:18.615Z,91.90
2018-12-31T02:46:47.671Z,92.00
2018-12-31T02:49:16.767Z,92.00
2018-12-31T02:51:45.815Z,92.00
2018-12-31T02:54:14.883Z,92.00
2018-12-31T02:56:43.921Z,91.90
2018-12-31T02:59:12.982Z,91.90
2018-12-31T03:01:42.052Z,91.90
2018-12-31T03:04:11.124Z,91.80
2018-12-31T03:06:40.142Z,91.80
2018-12-31T03:09:09.214Z,91.80
2018-12-31T03:11:38.263Z,91.80
2018-12-31T03:14:07.315Z,91.80
2018-12-31T03:16:36.376Z,91.80
2018-12-31T03:19:05.464Z,91.80
2018-12-31T03:21:34.603Z,91.80
2018-12-31T03:24:03.669Z,91.80
2018-12-31T03:26:32.719Z,91.70
2018-12-31T03:29:01.778Z,91.70
2018-12-31T03:31:30.818Z,91.70
2018-12-31T03:33:59.853Z,91.70
2018-12-31T03:36:28.901Z,91.70
2018-12-31T03:38:57.985Z,91.70
2018-12-31T03:41:27.031Z,91.60
2018-12-31T03:43:56.084Z,91.60
2018-12-31T03:46:25.177Z,91.60
2018-12-31T03:48:54.277Z,91.70
2018-12-31T03:51:23.398Z,91.70
2018-12-31T03:53:52.471Z,91.60
2018-12-31T03:56:21.502Z,91.70
2018-12-31T03:58:50.542Z,91.70
2018-12-31T04:01:19.579Z,91.70
2018-12-31T04:03:48.609Z,91.70
2018-12-31T04:06:17.668Z,91.60
2018-12-31T04:08:46.704Z,91.70
2018-12-31T04:11:15.746Z,91.70
2018-12-31T04:13:44.804Z,91.60
2018-12-31T04:16:13.923Z,91.60
2018-12-31T04:18:42.967Z,91.60
2018-12-31T04:21:11.996Z,92.00
2018-12-31T04:23:41.049Z,91.60
2018-12-31T04:26:10.121Z,91.70
2018-12-31T04:28:39.172Z,91.90
2018-12-31T04:31:08.238Z,91.70
2018-12-31T04:33:37.269Z,91.60
2018-12-31T04:36:06.328Z,91.60
2018-12-31T04:38:35.345Z,91.60
2018-12-31T04:41:04.409Z,91.60
2018-12-31T04:43:33.448Z,91.60
2018-12-31T04:46:02.486Z,91.60
2018-12-31T04:48:31.536Z,91.60
2018-12-31T04:51:00.580Z,91.60
2018-12-31T04:53:29.632Z,91.60
2018-12-31T04:55:58.688Z,91.60
2018-12-31T04:58:29.273Z,91.60
2018-12-31T05:00:58.496Z,91.60
2018-12-31T05:03:27.532Z,91.70
2018-12-31T05:05:56.560Z,91.60
2018-12-31T05:08:25.618Z,91.60
2018-12-31T05:10:54.696Z,91.70
2018-12-31T05:13:23.802Z,91.70
2018-12-31T05:15:52.917Z,91.60
2018-12-31T05:18:21.936Z,91.70
2018-12-31T05:20:50.979Z,91.70
2018-12-31T05:23:20.010Z,91.70
2018-12-31T05:25:49.143Z,91.70
2018-12-31T05:28:18.177Z,91.70
2018-12-31T05:30:47.264Z,91.70
2018-12-31T05:33:16.390Z,91.70
2018-12-31T05:35:45.425Z,91.60
2018-12-31T05:38:14.474Z,91.60
2018-12-31T05:40:43.538Z,91.70
2018-12-31T05:43:12.650Z,91.60
2018-12-31T05:45:41.728Z,91.60
2018-12-31T05:48:10.792Z,91.60
2018-12-31T05:50:39.857Z,91.60
2018-12-31T05:53:08.878Z,91.60
2018-12-31T05:55:37.902Z,91.70
2018-12-31T05:58:06.950Z,91.70
2018-12-31T06:00:36.609Z,91.70
2018-12-31T06:03:05.680Z,91.70
2018-12-31T06:05:34.718Z,91.70
2018-12-31T06:08:03.782Z,91.70
2018-12-31T06:10:32.879Z,91.70
2018-12-31T06:13:02.386Z,91.80
2018-12-31T06:15:31.421Z,91.80
2018-12-31T06:18:00.479Z,91.80
2018-12-31T06:20:29.510Z,91.80
2018-12-31T06:22:58.575Z,91.80
2018-12-31T06:25:27.634Z,91.80
2018-12-31T06:27:56.685Z,91.80
2018-12-31T06:30:25.727Z,91.80
2018-12-31T06:32:54.788Z,91.80
2018-12-31T06:35:23.840Z,91.70
2018-12-31T06:37:52.945Z,91.90
2018-12-31T06:40:21.989Z,91.90
2018-12-31T06:42:51.071Z,91.90
2018-12-31T06:45:20.114Z,91.90
2018-12-31T06:47:49.159Z,91.90
2018-12-31T06:50:18.345Z,91.90
2018-12-31T06:52:47.390Z,91.90
2018-12-31T06:55:16.427Z,91.80
2018-12-31T06:57:45.491Z,91.90
2018-12-31T07:00:14.535Z,91.90
2018-12-31T07:02:43.591Z,91.80
2018-12-31T07:05:12.648Z,91.90
2018-12-31T07:07:41.721Z,92.00
2018-12-31T07:10:10.767Z,92.00
2018-12-31T07:12:39.841Z,92.00
2018-12-31T07:15:08.950Z,92.00
2018-12-31T07:17:38.010Z,91.90
2018-12-31T07:20:07.525Z,92.00
2018-12-31T07:22:36.591Z,91.90
2018-12-31T07:25:05.641Z,92.00
2018-12-31T07:27:34.738Z,92.00
2018-12-31T07:30:04.977Z,92.00
2018-12-31T07:32:34.057Z,92.00
2018-12-31T07:35:03.099Z,92.00
2018-12-31T07:37:32.161Z,92.10
2018-12-31T07:40:01.207Z,92.10
2018-12-31T07:42:30.267Z,92.10
2018-12-31T07:44:59.327Z,92.10
2018-12-31T07:47:28.361Z,92.10
2018-12-31T07:49:57.429Z,92.10
2018-12-31T07:52:26.479Z,92.00
2018-12-31T07:54:55.545Z,92.00
2018-12-31T07:57:24.593Z,92.00
2018-12-31T07:59:53.658Z,91.90
2018-12-31T08:02:22.703Z,92.00
2018-12-31T08:04:51.782Z,92.00
2018-12-31T08:07:20.831Z,91.90
2018-12-31T08:09:49.872Z,92.00
2018-12-31T08:12:18.964Z,91.90
2018-12-31T08:14:47.997Z,92.00
2018-12-31T08:17:17.104Z,91.90
2018-12-31T08:19:46.209Z,91.90
2018-12-31T08:22:15.318Z,92.00
2018-12-31T08:24:44.384Z,91.90
2018-12-31T08:27:13.419Z,91.80
2018-12-31T08:29:42.502Z,91.90
2018-12-31T08:32:11.554Z,91.80
2018-12-31T08:34:40.590Z,91.80
2018-12-31T08:37:09.644Z,91.80
2018-12-31T08:39:38.696Z,91.80
2018-12-31T08:42:07.787Z,91.90
2018-12-31T08:44:36.818Z,91.90
2018-12-31T08:47:05.888Z,91.70
2018-12-31T08:49:34.922Z,91.80
2018-12-31T08:52:04.062Z,91.80
2018-12-31T08:54:33.123Z,91.80
2018-12-31T08:57:02.177Z,91.70
2018-12-31T08:59:37.115Z,91.60
2018-12-31T09:02:06.173Z,91.70
2018-12-31T09:04:35.229Z,91.60
2018-12-31T09:07:04.271Z,91.60
2018-12-31T09:09:33.341Z,91.50
2018-12-31T09:12:02.385Z,91.40
2018-12-31T09:14:31.467Z,91.50
2018-12-31T09:17:00.527Z,91.50
2018-12-31T09:19:29.583Z,91.60
2018-12-31T09:21:58.637Z,91.60
2018-12-31T09:24:27.675Z,91.60
2018-12-31T09:26:56.729Z,91.50
2018-12-31T09:29:25.821Z,91.50
2018-12-31T09:31:54.893Z,91.60
2018-12-31T09:34:23.944Z,91.60
2018-12-31T09:36:53.026Z,91.50
2018-12-31T09:39:22.089Z,91.50
2018-12-31T09:41:51.158Z,91.40
2018-12-31T09:44:20.223Z,91.50
2018-12-31T09:46:49.351Z,91.50
2018-12-31T09:49:18.393Z,91.50
2018-12-31T09:51:47.451Z,91.50
2018-12-31T09:54:16.597Z,91.50
2018-12-31T09:56:45.706Z,91.50
2018-12-31T09:59:14.892Z,91.40
2018-12-31T10:01:44.003Z,91.30
2018-12-31T10:04:13.121Z,91.20
2018-12-31T10:06:42.218Z,91.10
2018-12-31T10:09:12.047Z,91.10
2018-12-31T10:11:41.213Z,91.20
2018-12-31T10:14:10.305Z,91.10
2018-12-31T10:16:39.446Z,91.10
2018-12-31T10:19:08.518Z,91.10
2018-12-31T10:21:41.160Z,91.00
2018-12-31T10:24:08.378Z,90.80
2018-12-31T10:26:37.515Z,90.80
2018-12-31T10:29:06.591Z,91.00
2018-12-31T10:31:35.688Z,90.70
2018-12-31T10:34:04.730Z,91.10
2018-12-31T10:36:33.793Z,90.90
2018-12-31T10:39:04.497Z,90.90
2018-12-31T10:41:33.544Z,91.00
2018-12-31T10:44:02.703Z,91.00
2018-12-31T10:46:31.764Z,91.00
2018-12-31T10:49:00.823Z,91.20
2018-12-31T10:51:29.946Z,91.20
2018-12-31T10:53:58.994Z,91.20
2018-12-31T10:56:28.137Z,91.20
2018-12-31T10:58:57.408Z,91.10
2018-12-31T11:01:26.466Z,90.90
2018-12-31T11:03:55.506Z,91.00
2018-12-31T11:06:24.570Z,90.90
2018-12-31T11:08:53.686Z,90.80
2018-12-31T11:11:22.976Z,90.70
2018-12-31T11:13:52.090Z,90.60
2018-12-31T11:16:21.152Z,90.70
2018-12-31T11:18:50.234Z,90.70
2018-12-31T11:21:19.367Z,90.50
2018-12-31T11:23:48.436Z,90.50
2018-12-31T11:26:17.489Z,90.60
2018-12-31T11:28:46.549Z,90.60
2018-12-31T11:31:15.625Z,90.60
2018-12-31T11:33:44.697Z,90.70
2018-12-31T11:36:13.740Z,90.70
2018-12-31T11:38:42.909Z,91.20
2018-12-31T11:41:11.958Z,91.00
2018-12-31T11:43:41.119Z,91.00
2018-12-31T11:46:10.157Z,91.20
2018-12-31T11:48:39.215Z,90.60
2018-12-31T11:51:08.297Z,90.20
2018-12-31T11:53:37.353Z,90.60
2018-12-31T11:56:06.421Z,90.40
2018-12-31T11:58:35.601Z,90.40
2018-12-31T12:01:04.654Z,90.50
2018-12-31T12:03:33.701Z,90.40
2018-12-31T12:06:02.770Z,90.50
2018-12-31T12:08:31.802Z,90.40
2018-12-31T12:11:00.883Z,90.50
2018-12-31T12:13:30.219Z,90.50
2018-12-31T12:15:59.258Z,90.40
2018-12-31T12:18:28.326Z,90.40
2018-12-31T12:20:57.390Z,90.50
2018-12-31T12:23:26.552Z,90.40
2018-12-31T12:25:56.005Z,90.40
2018-12-31T12:28:25.160Z,90.20
2018-12-31T12:30:54.391Z,90.20
2018-12-31T12:33:23.456Z,90.10
2018-12-31T12:35:52.511Z,90.10
2018-12-31T12:38:21.752Z,90.10
2018-12-31T12:40:50.797Z,90.00
2018-12-31T12:43:19.867Z,90.30
2018-12-31T12:45:48.919Z,90.20
2018-12-31T12:48:17.984Z,90.10
2018-12-31T12:50:47.035Z,90.20
2018-12-31T12:53:16.276Z,90.20
2018-12-31T12:55:45.335Z,90.10
2018-12-31T12:58:14.396Z,90.00
2018-12-31T13:00:43.547Z,89.80
2018-12-31T13:03:12.668Z,89.70
2018-12-31T13:05:41.763Z,89.70
2018-12-31T13:08:10.900Z,89.60
2018-12-31T13:10:40.041Z,89.70
2018-12-31T13:13:09.095Z,89.60
2018-12-31T13:15:38.167Z,89.80
2018-12-31T13:18:07.228Z,89.60
2018-12-31T13:20:36.308Z,89.60
2018-12-31T13:23:05.440Z,89.90
2018-12-31T13:25:34.508Z,89.70
2018-12-31T13:28:03.570Z,89.20
2018-12-31T13:30:33.358Z,89.60
2018-12-31T13:33:02.643Z,89.80
2018-12-31T13:35:31.717Z,89.80
2018-12-31T13:38:00.777Z,89.70
2018-12-31T13:40:29.895Z,89.70
2018-12-31T13:42:58.993Z,89.50
2018-12-31T13:45:28.077Z,89.60
2018-12-31T13:47:57.195Z,89.60
2018-12-31T13:50:26.255Z,90.00
2018-12-31T13:52:55.303Z,89.70
2018-12-31T13:55:24.374Z,89.90
2018-12-31T13:57:53.421Z,89.90
2018-12-31T14:00:22.508Z,89.80
2018-12-31T14:02:51.659Z,89.90
2018-12-31T14:05:20.787Z,89.90
2018-12-31T14:07:49.909Z,90.10
2018-12-31T14:10:20.805Z,90.20
2018-12-31T14:12:49.842Z,90.30
2018-12-31T14:15:19.288Z,90.40
2018-12-31T14:17:48.344Z,90.40
2018-12-31T14:20:17.410Z,90.40
2018-12-31T14:22:46.456Z,90.50
2018-12-31T14:25:15.520Z,90.50
2018-12-31T14:27:44.866Z,90.60
2018-12-31T14:30:13.946Z,90.70
2018-12-31T14:32:43.055Z,90.80
2018-12-31T14:35:12.126Z,90.90
2018-12-31T14:37:41.179Z,91.00
2018-12-31T14:40:10.510Z,91.10
2018-12-31T14:42:39.574Z,91.20
2018-12-31T14:45:08.636Z,91.30
2018-12-31T14:47:37.761Z,91.40
2018-12-31T14:50:07.344Z,91.50
2018-12-31T14:52:36.423Z,91.60
2018-12-31T14:55:05.681Z,91.80
2018-12-31T14:57:34.743Z,91.80
2018-12-31T15:00:05.711Z,92.00
2018-12-31T15:02:34.774Z,92.00
2018-12-31T15:05:04.345Z,92.00
2018-12-31T15:07:33.411Z,92.20
2018-12-31T15:10:02.461Z,92.30
2018-12-31T15:12:31.559Z,92.40
2018-12-31T15:15:00.631Z,92.40
2018-12-31T15:17:29.707Z,92.50
2018-12-31T15:19:58.755Z,92.70
2018-12-31T15:22:29.231Z,92.70
2018-12-31T15:24:58.557Z,92.80
2018-12-31T15:27:27.623Z,92.90
2018-12-31T15:29:56.740Z,92.90
2018-12-31T15:32:25.789Z,93.00
2018-12-31T15:34:54.835Z,92.90
2018-12-31T15:37:23.908Z,92.90
2018-12-31T15:39:52.949Z,93.20
2018-12-31T15:42:22.009Z,93.20
2018-12-31T15:44:51.056Z,93.30
2018-12-31T15:47:20.121Z,93.70
2018-12-31T15:49:49.185Z,93.40
2018-12-31T15:52:18.247Z,93.40
2018-12-31T15:54:47.279Z,93.50
2018-12-31T15:57:16.362Z,93.50
2018-12-31T15:59:45.406Z,93.60
2018-12-31T16:02:14.478Z,93.60
2018-12-31T16:04:43.520Z,93.60
2018-12-31T16:07:12.580Z,93.70
2018-12-31T16:09:41.666Z,93.60
2018-12-31T16:12:10.740Z,93.60
2018-12-31T16:14:39.860Z,93.70
2018-12-31T16:17:08.935Z,93.70
2018-12-31T16:19:37.989Z,93.80
2018-12-31T16:22:07.042Z,93.80
2018-12-31T16:24:36.085Z,93.80
2018-12-31T16:27:05.174Z,93.80
2018-12-31T16:29:34.246Z,93.90
2018-12-31T16:32:03.369Z,93.90
2018-12-31T16:34:32.517Z,94.20
2018-12-31T16:37:01.632Z,93.90
2018-12-31T16:39:30.692Z,94.00
2018-12-31T16:41:59.736Z,94.00
2018-12-31T16:44:28.847Z,94.00
2018-12-31T16:46:57.961Z,94.00
2018-12-31T16:49:27.020Z,94.10
2018-12-31T16:52:02.510Z,94.00
2018-12-31T16:54:26.898Z,94.00
2018-12-31T16:56:56.005Z,94.10
2018-12-31T16:59:25.078Z,94.10
2018-12-31T17:01:54.151Z,94.10
2018-12-31T17:04:23.223Z,94.10
2018-12-31T17:06:52.258Z,94.10
2018-12-31T17:09:21.336Z,94.10
2018-12-31T17:11:50.460Z,94.10
2018-12-31T17:14:19.529Z,94.20
2018-12-31T17:16:48.581Z,94.20
2018-12-31T17:19:17.714Z,94.20
2018-12-31T17:21:46.845Z,94.30
2018-12-31T17:24:15.923Z,94.30
2018-12-31T17:26:45.037Z,94.30
2018-12-31T17:29:14.097Z,94.30
2018-12-31T17:31:43.220Z,94.30
2018-12-31T17:34:12.572Z,94.30
2018-12-31T17:36:41.643Z,94.40
2018-12-31T17:39:10.717Z,94.40
2018-12-31T17:41:39.771Z,94.50
2018-12-31T17:44:08.933Z,94.50
2018-12-31T17:46:38.453Z,94.50
2018-12-31T17:49:07.520Z,94.50
2018-12-31T17:51:36.561Z,94.60
2018-12-31T17:54:05.604Z,94.60
2018-12-31T17:56:34.688Z,94.60
2018-12-31T17:59:04.107Z,94.60
2018-12-31T18:01:33.189Z,94.60
2018-12-31T18:04:02.254Z,94.50
2018-12-31T18:06:31.316Z,94.60
2018-12-31T18:09:00.346Z,94.60
2018-12-31T18:11:29.782Z,94.70
2018-12-31T18:13:58.842Z,94.60
2018-12-31T18:16:27.902Z,94.50
2018-12-31T18:18:56.956Z,94.50
2018-12-31T18:21:26.034Z,94.70
2018-12-31T18:23:55.416Z,94.70
2018-12-31T18:26:24.514Z,94.60
2018-12-31T18:28:53.584Z,94.70
2018-12-31T18:31:22.618Z,94.70
2018-12-31T18:33:51.691Z,94.80
2018-12-31T18:36:21.112Z,94.80
2018-12-31T18:38:50.183Z,94.90
2018-12-31T18:41:19.228Z,94.80
2018-12-31T18:43:48.313Z,94.80
2018-12-31T18:46:17.367Z,94.80
2018-12-31T18:48:47.077Z,94.80
2018-12-31T18:51:16.138Z,94.90
2018-12-31T18:53:45.183Z,94.80
2018-12-31T18:56:14.257Z,94.90
2018-12-31T18:58:43.312Z,94.80
2018-12-31T19:01:12.755Z,94.90
2018-12-31T19:03:41.802Z,94.90
2018-12-31T19:06:10.871Z,94.90
2018-12-31T19:08:39.933Z,94.90
2018-12-31T19:11:08.987Z,95.00
2018-12-31T19:13:38.400Z,94.90
2018-12-31T19:16:07.501Z,95.00
2018-12-31T19:18:36.614Z,95.00
2018-12-31T19:21:05.690Z,95.00
2018-12-31T19:23:34.731Z,95.00
2018-12-31T19:26:03.807Z,95.00
2018-12-31T19:28:32.860Z,95.00
2018-12-31T19:31:01.935Z,95.00
2018-12-31T19:33:31.065Z,95.00
2018-12-31T19:36:00.117Z,95.00
2018-12-31T19:38:29.181Z,95.00
2018-12-31T19:40:58.213Z,95.00
2018-12-31T19:43:27.287Z,95.00
2018-12-31T19:45:56.334Z,95.00
2018-12-31T19:48:25.403Z,95.00
2018-12-31T19:50:54.514Z,95.00
2018-12-31T19:53:23.564Z,95.00
2018-12-31T19:55:52.600Z,95.00
2018-12-31T19:58:21.748Z,95.00
2018-12-31T20:00:50.780Z,95.00
2018-12-31T20:03:19.867Z,95.00
2018-12-31T20:05:48.982Z,95.00
2018-12-31T20:08:18.065Z,95.00
2018-12-31T20:10:47.173Z,95.00
2018-12-31T20:13:16.227Z,95.00
2018-12-31T20:15:48.694Z,95.00
2018-12-31T20:18:16.106Z,95.00
2018-12-31T20:20:45.153Z,94.90
2018-12-31T20:23:14.242Z,94.90
2018-12-31T20:25:43.446Z,94.90
2018-12-31T20:28:12.572Z,95.00
2018-12-31T20:30:41.912Z,95.00
2018-12-31T20:33:11.001Z,94.90
2018-12-31T20:35:40.047Z,95.00
2018-12-31T20:38:09.192Z,94.90
2018-12-31T20:40:38.249Z,94.90
2018-12-31T20:43:07.316Z,94.90
2018-12-31T20:45:36.433Z,94.90
2018-12-31T20:48:05.557Z,94.90
2018-12-31T20:50:34.691Z,94.90
2018-12-31T20:53:03.948Z,94.90
2018-12-31T20:55:33.000Z,94.90
2018-12-31T20:58:02.575Z,94.90
2018-12-31T21:00:31.633Z,94.90
2018-12-31T21:03:00.716Z,94.90
2018-12-31T21:05:29.797Z,94.80
2018-12-31T21:07:58.871Z,94.80
2018-12-31T21:10:28.315Z,94.80
2018-12-31T21:12:57.401Z,94.90
2018-12-31T21:15:26.462Z,94.80
2018-12-31T21:17:55.533Z,94.80
2018-12-31T21:20:24.665Z,94.90
2018-12-31T21:22:53.713Z,94.90
2018-12-31T21:25:22.791Z,94.80
2018-12-31T21:27:51.841Z,95.10
2018-12-31T21:30:20.897Z,94.80
2018-12-31T21:32:49.956Z,94.80
2018-12-31T21:35:19.091Z,94.90
2018-12-31T21:37:48.127Z,94.80
2018-12-31T21:40:17.209Z,94.80
2018-12-31T21:42:46.241Z,94.80
2018-12-31T21:45:15.295Z,94.80
2018-12-31T21:47:44.347Z,94.80
2018-12-31T21:50:13.687Z,94.80
2018-12-31T21:52:42.720Z,94.80
2018-12-31T21:55:11.797Z,94.80
2018-12-31T21:57:40.851Z,94.80
2018-12-31T22:00:10.077Z,94.80
2018-12-31T22:02:39.609Z,95.00
2018-12-31T22:05:08.728Z,94.80
2018-12-31T22:07:37.790Z,94.80
2018-12-31T22:10:06.931Z,94.70
2018-12-31T22:12:35.996Z,94.80
2018-12-31T22:15:07.322Z,94.80
2018-12-31T22:17:36.367Z,94.80
2018-12-31T22:20:08.067Z,94.80
2018-12-31T22:22:37.113Z,94.70
2018-12-31T22:25:06.610Z,94.70
2018-12-31T22:27:36.131Z,94.70
2018-12-31T22:30:06.347Z,94.70
2018-12-31T22:32:35.407Z,95.00
2018-12-31T22:35:04.613Z,94.60
2018-12-31T22:37:33.677Z,94.60
2018-12-31T22:40:03.814Z,94.70
2018-12-31T22:42:32.936Z,94.60
2018-12-31T22:45:02.067Z,94.60
2018-12-31T22:47:31.136Z,94.60
2018-12-31T22:50:00.258Z,94.60
2018-12-31T22:52:29.696Z,94.50
2018-12-31T22:54:58.818Z,94.50
2018-12-31T22:57:27.908Z,94.50
2018-12-31T22:59:56.970Z,94.40
2018-12-31T23:02:26.025Z,94.40
2018-12-31T23:04:55.387Z,94.30
2018-12-31T23:07:24.476Z,94.30
2018-12-31T23:09:53.632Z,94.30
2018-12-31T23:12:24.182Z,94.30
2018-12-31T23:14:53.272Z,94.20
2018-12-31T23:17:22.637Z,94.20
2018-12-31T23:19:51.728Z,94.10
2018-12-31T23:22:20.807Z,94.10
2018-12-31T23:24:49.879Z,94.00
2018-12-31T23:27:19.071Z,93.90
2018-12-31T23:29:48.626Z,94.30
2018-12-31T23:32:17.776Z,93.90
2018-12-31T23:34:46.867Z,93.90
2018-12-31T23:37:15.983Z,93.80
2018-12-31T23:39:45.059Z,93.80
2018-12-31T23:42:14.607Z,93.80
2018-12-31T23:44:43.662Z,93.70
2018-12-31T23:47:12.730Z,93.70
2018-12-31T23:49:41.813Z,93.70
2018-12-31T23:52:10.876Z,93.70
2018-12-31T23:54:40.296Z,93.60
2018-12-31T23:57:09.360Z,93.60
2018-12-31T23:59:38.447Z,93.60
